Time;durP1;ratioP1;P1;durP2;ratioP2;P2;SDS_P1;SDS_P2;PMS_P1;PMS_P2;Temp;Humidity;BMP_temperature;BMP_pressure;BME280_temperature;BME280_humidity;BME280_pressure;Samples;Min_cycle;Max_cycle;Signal;HPM_P1;HPM_P2
2021/05/25 00:00:15;;;;;;;2.45;2.25;;;14.10;78.70;;;;;;5156960;27;20356;-69
2021/05/25 00:02:42;;;;;;;2.90;2.33;;;14.00;78.70;;;;;;5156622;27;20432;-70
2021/05/25 00:05:10;;;;;;;4.72;2.33;;;14.00;78.80;;;;;;5156331;27;20015;-70
2021/05/25 00:07:36;;;;;;;3.65;2.15;;;14.00;78.90;;;;;;5137191;27;20121;-70
2021/05/25 00:10:03;;;;;;;3.20;2.42;;;14.00;79.00;;;;;;5156217;27;20109;-70
2021/05/25 00:12:28;;;;;;;4.97;2.88;;;14.00;79.10;;;;;;5156243;27;20019;-70
2021/05/25 00:14:54;;;;;;;3.35;2.35;;;14.00;79.10;;;;;;5155986;27;20127;-70
2021/05/25 00:17:20;;;;;;;2.83;2.63;;;14.00;79.10;;;;;;5156246;27;20058;-70
2021/05/25 00:19:45;;;;;;;3.30;3.00;;;14.00;79.10;;;;;;5156131;27;20464;-70
2021/05/25 00:22:13;;;;;;;3.80;3.00;;;14.00;79.20;;;;;;5156021;27;20027;-70
2021/05/25 00:24:39;;;;;;;3.80;2.83;;;13.90;79.20;;;;;;5138165;27;20117;-70
2021/05/25 00:27:05;;;;;;;3.00;2.70;;;14.00;79.30;;;;;;5156291;27;20488;-70
2021/05/25 00:29:31;;;;;;;3.55;2.65;;;13.90;79.30;;;;;;5155833;27;20019;-70
2021/05/25 00:31:56;;;;;;;4.13;2.55;;;13.90;79.30;;;;;;5155847;27;20159;-70
2021/05/25 00:34:22;;;;;;;2.83;2.40;;;13.90;79.50;;;;;;5155758;27;20640;-70
2021/05/25 00:36:48;;;;;;;3.90;2.38;;;13.90;79.50;;;;;;5155752;27;20114;-70
2021/05/25 00:39:13;;;;;;;2.42;2.22;;;13.90;79.60;;;;;;5155722;27;20041;-70
2021/05/25 00:41:39;;;;;;;4.93;2.40;;;13.90;79.60;;;;;;5155676;27;20025;-70
2021/05/25 00:44:09;;;;;;;2.95;2.10;;;13.90;79.60;;;;;;5155461;27;20034;-70
2021/05/25 00:46:36;;;;;;;3.28;2.13;;;13.90;79.70;;;;;;5155564;27;20031;-70
2021/05/25 00:49:03;;;;;;;2.30;2.10;;;13.90;79.70;;;;;;5155879;27;20376;-70
2021/05/25 00:51:29;;;;;;;4.18;2.20;;;13.90;79.70;;;;;;5137085;27;20022;-71
2021/05/25 00:53:55;;;;;;;3.70;2.28;;;13.80;79.70;;;;;;5155690;27;20373;-70
2021/05/25 00:56:21;;;;;;;3.78;2.20;;;13.80;79.80;;;;;;5155205;27;20019;-70
2021/05/25 00:58:46;;;;;;;3.20;2.38;;;13.80;79.80;;;;;;5136892;27;20018;-70
2021/05/25 01:01:12;;;;;;;3.00;2.70;;;13.80;79.80;;;;;;5155429;27;20023;-70
2021/05/25 01:03:38;;;;;;;3.40;2.38;;;13.80;79.80;;;;;;5155692;27;20035;-70
2021/05/25 01:06:04;;;;;;;3.28;2.40;;;13.80;79.80;;;;;;5155372;27;20023;-70
2021/05/25 01:08:34;;;;;;;3.50;2.65;;;13.70;79.70;;;;;;5155236;27;20022;-71
2021/05/25 01:11:05;;;;;;;2.42;2.22;;;13.70;79.80;;;;;;5155226;27;20035;-70
2021/05/25 01:13:39;;;;;;;5.70;2.25;;;13.60;79.80;;;;;;5155126;27;20034;-70
2021/05/25 01:16:06;;;;;;;6.05;2.90;;;13.60;79.90;;;;;;5155216;27;20027;-70
2021/05/25 01:18:32;;;;;;;2.85;2.65;;;13.60;80.00;;;;;;5155746;27;20054;-70
2021/05/25 01:20:58;;;;;;;6.05;3.38;;;13.60;80.00;;;;;;5158740;27;20033;-70
2021/05/25 01:23:27;;;;;;;4.63;3.00;;;13.50;80.10;;;;;;5159430;27;20030;-70
2021/05/25 01:25:53;;;;;;;5.45;3.30;;;13.60;80.30;;;;;;5159352;27;20031;-70
2021/05/25 01:28:21;;;;;;;2.75;2.55;;;13.60;80.30;;;;;;5159377;27;20029;-70
2021/05/25 01:30:51;;;;;;;3.38;2.70;;;13.50;80.30;;;;;;5159600;27;20029;-70
2021/05/25 01:33:19;;;;;;;4.00;2.88;;;13.50;80.40;;;;;;5159273;27;20030;-70
2021/05/25 01:35:45;;;;;;;4.57;3.03;;;13.60;80.40;;;;;;5159489;27;20452;-70
2021/05/25 01:38:13;;;;;;;3.17;2.65;;;13.50;80.40;;;;;;5159562;27;20027;-70
2021/05/25 01:40:39;;;;;;;5.18;2.88;;;13.60;80.50;;;;;;5159188;27;20046;-70
2021/05/25 01:43:06;;;;;;;3.08;2.78;;;13.60;80.40;;;;;;5158711;27;20042;-70
2021/05/25 01:45:33;;;;;;;3.72;2.70;;;13.60;80.50;;;;;;5158968;27;20034;-71
2021/05/25 01:48:01;;;;;;;5.28;2.80;;;13.50;80.40;;;;;;5159047;27;20046;-70
2021/05/25 01:50:28;;;;;;;5.30;3.10;;;13.50;80.40;;;;;;5158784;27;20030;-70
2021/05/25 01:52:58;;;;;;;4.40;2.55;;;13.50;80.40;;;;;;5158783;27;20075;-70
2021/05/25 01:55:28;;;;;;;4.35;2.78;;;13.60;80.40;;;;;;5159192;27;20026;-70
2021/05/25 01:57:56;;;;;;;3.20;2.65;;;13.60;80.40;;;;;;5159362;27;20027;-70
2021/05/25 02:00:22;;;;;;;5.93;2.65;;;13.60;80.40;;;;;;5158883;27;20070;-70
2021/05/25 02:02:48;;;;;;;4.43;2.65;;;13.60;80.40;;;;;;5158693;27;20422;-70
2021/05/25 02:05:14;;;;;;;3.38;2.30;;;13.60;80.30;;;;;;5159006;27;20022;-70
2021/05/25 02:07:44;;;;;;;2.88;2.55;;;13.60;80.30;;;;;;5158613;27;20027;-70
2021/05/25 02:10:19;;;;;;;2.70;2.50;;;13.60;80.20;;;;;;5158275;27;20444;-70
2021/05/25 02:12:45;;;;;;;5.95;2.45;;;13.70;80.20;;;;;;5158196;27;20029;-70
2021/05/25 02:15:11;;;;;;;3.38;2.40;;;13.70;80.10;;;;;;5158791;27;20371;-70
2021/05/25 02:17:37;;;;;;;3.42;2.40;;;13.70;79.90;;;;;;5158974;27;20079;-70
2021/05/25 02:20:03;;;;;;;3.47;2.40;;;13.80;79.80;;;;;;5158477;27;20397;-70
2021/05/25 02:22:29;;;;;;;3.33;2.45;;;13.80;79.50;;;;;;5158651;27;20045;-70
2021/05/25 02:24:54;;;;;;;2.80;2.40;;;13.80;79.30;;;;;;5158299;27;20022;-70
2021/05/25 02:27:20;;;;;;;5.18;2.38;;;13.90;79.30;;;;;;5158324;27;20026;-70
2021/05/25 02:29:46;;;;;;;2.22;2.03;;;13.90;79.10;;;;;;5158264;27;20463;-70
2021/05/25 02:32:12;;;;;;;2.20;1.90;;;13.90;78.90;;;;;;5157974;27;20042;-70
2021/05/25 02:34:37;;;;;;;3.58;1.80;;;14.00;78.70;;;;;;5157774;27;20539;-70
2021/05/25 02:37:03;;;;;;;3.28;2.45;;;14.10;78.50;;;;;;5158104;27;20074;-70
2021/05/25 02:39:29;;;;;;;3.28;2.05;;;14.10;78.30;;;;;;5158358;27;20460;-70
2021/05/25 02:41:54;;;;;;;2.67;1.90;;;14.20;78.10;;;;;;5158559;27;20029;-70
2021/05/25 02:44:20;;;;;;;5.30;2.40;;;14.30;78.00;;;;;;5158338;27;20030;-70
2021/05/25 02:46:46;;;;;;;2.15;1.88;;;14.30;77.60;;;;;;5158087;27;20101;-70
2021/05/25 02:49:11;;;;;;;2.70;1.92;;;14.30;77.50;;;;;;5157913;27;20376;-70
2021/05/25 02:51:37;;;;;;;4.10;2.10;;;14.40;77.30;;;;;;5157821;27;20097;-70
2021/05/25 02:54:03;;;;;;;2.88;1.90;;;14.50;77.70;;;;;;5157673;27;20034;-70
2021/05/25 02:56:29;;;;;;;2.10;1.88;;;14.50;76.90;;;;;;5157670;27;20484;-70
2021/05/25 02:58:55;;;;;;;3.35;2.00;;;14.60;76.70;;;;;;5157947;27;20058;-70
2021/05/25 03:01:21;;;;;;;3.40;1.80;;;14.70;76.60;;;;;;5157218;27;20022;-70
2021/05/25 03:03:47;;;;;;;2.65;2.00;;;14.70;76.20;;;;;;5157509;27;20030;-70
2021/05/25 03:06:12;;;;;;;2.15;1.88;;;14.80;76.00;;;;;;5158347;27;20464;-70
2021/05/25 03:08:38;;;;;;;1.83;1.63;;;14.90;75.80;;;;;;5157442;27;20050;-71
2021/05/25 03:11:04;;;;;;;2.30;2.05;;;14.90;75.50;;;;;;5157952;27;20025;-70
2021/05/25 03:13:30;;;;;;;3.70;2.28;;;15.00;75.30;;;;;;5157566;27;20034;-70
2021/05/25 03:15:55;;;;;;;3.55;2.40;;;15.00;75.10;;;;;;5157753;27;20023;-70
2021/05/25 03:18:21;;;;;;;2.95;2.00;;;15.00;74.90;;;;;;5157326;27;20022;-70
2021/05/25 03:20:49;;;;;;;4.75;2.20;;;15.00;74.80;;;;;;5157439;27;20034;-70
2021/05/25 03:23:15;;;;;;;2.97;2.17;;;15.10;74.90;;;;;;5156999;27;20030;-70
2021/05/25 03:25:42;;;;;;;4.25;2.55;;;15.10;74.80;;;;;;5157094;27;20026;-70
2021/05/25 03:28:09;;;;;;;5.65;2.50;;;15.20;75.30;;;;;;5156959;27;20015;-70
2021/05/25 03:30:37;;;;;;;2.35;2.10;;;15.20;74.50;;;;;;5157151;27;20030;-70
2021/05/25 03:33:03;;;;;;;3.50;2.25;;;15.20;74.40;;;;;;5156638;27;20388;-71
2021/05/25 03:35:29;;;;;;;2.92;2.30;;;15.30;74.20;;;;;;5157071;27;20422;-70
2021/05/25 03:37:55;;;;;;;1.90;1.73;;;15.30;74.00;;;;;;5156606;27;20030;-70
2021/05/25 03:40:21;;;;;;;2.47;2.28;;;15.30;73.90;;;;;;5156781;27;20023;-70
2021/05/25 03:42:48;;;;;;;3.70;2.22;;;15.40;73.70;;;;;;5155869;27;20091;-70
2021/05/25 03:45:15;;;;;;;3.33;2.00;;;15.40;73.50;;;;;;5156672;27;20062;-70
2021/05/25 03:47:41;;;;;;;3.70;2.20;;;15.50;73.40;;;;;;5156579;27;20026;-70
2021/05/25 03:50:09;;;;;;;4.80;2.15;;;15.50;73.30;;;;;;5156958;27;20030;-70
2021/05/25 03:52:36;;;;;;;2.85;2.20;;;15.60;73.20;;;;;;5156411;27;20037;-70
2021/05/25 03:55:04;;;;;;;2.70;2.50;;;15.60;73.10;;;;;;5156480;27;20038;-70
2021/05/25 03:59:59;;;;;;;2.90;2.42;;;15.70;73.10;;;;;;5156409;27;20023;-70
2021/05/25 04:02:25;;;;;;;5.82;2.55;;;15.80;73.20;;;;;;5156620;27;20030;-70
2021/05/25 04:04:50;;;;;;;2.80;2.55;;;15.80;73.30;;;;;;5156331;27;20111;-71
2021/05/25 04:07:16;;;;;;;2.50;2.30;;;15.80;73.30;;;;;;5137709;27;20078;-70
2021/05/25 04:09:42;;;;;;;3.78;2.25;;;15.90;73.30;;;;;;5154779;27;20030;-71
2021/05/25 04:12:08;;;;;;;5.22;2.40;;;15.90;73.30;;;;;;5154934;27;20023;-71
2021/05/25 04:14:34;;;;;;;3.20;2.20;;;16.00;73.20;;;;;;5156052;27;20054;-71
2021/05/25 04:16:59;;;;;;;4.53;2.10;;;16.00;73.00;;;;;;5156322;27;20453;-71
2021/05/25 04:19:25;;;;;;;3.05;1.83;;;16.10;73.50;;;;;;5156022;27;20064;-70
2021/05/25 04:21:51;;;;;;;3.03;2.05;;;16.10;72.50;;;;;;5155965;27;20516;-71
2021/05/25 04:24:17;;;;;;;6.68;2.10;;;16.20;72.20;;;;;;5155726;27;20057;-70
2021/05/25 04:26:43;;;;;;;2.47;2.28;;;16.30;72.10;;;;;;5155942;27;20046;-71
2021/05/25 04:29:09;;;;;;;2.88;1.92;;;16.40;71.80;;;;;;5155437;27;20121;-70
2021/05/25 04:31:35;;;;;;;2.00;1.80;;;16.40;71.50;;;;;;5156243;27;20023;-70
2021/05/25 04:34:01;;;;;;;2.17;1.75;;;16.50;71.10;;;;;;5155833;27;20109;-70
2021/05/25 04:36:27;;;;;;;4.47;1.98;;;16.60;70.90;;;;;;5137123;27;20465;-71
2021/05/25 04:38:53;;;;;;;2.60;1.83;;;16.70;70.70;;;;;;5155501;27;20031;-71
2021/05/25 04:41:18;;;;;;;4.68;2.22;;;16.70;70.20;;;;;;5155356;27;20097;-70
2021/05/25 04:43:44;;;;;;;3.45;2.03;;;16.80;69.90;;;;;;5156089;27;20043;-71
2021/05/25 04:46:10;;;;;;;2.38;1.70;;;16.90;69.60;;;;;;5155887;27;20027;-70
2021/05/25 04:48:36;;;;;;;2.85;2.10;;;17.00;69.30;;;;;;5155130;27;20127;-71
2021/05/25 04:51:01;;;;;;;4.53;2.00;;;17.10;69.00;;;;;;5155698;27;20070;-71
2021/05/25 04:53:27;;;;;;;2.58;1.83;;;17.10;68.60;;;;;;5155148;27;20038;-71
2021/05/25 04:55:53;;;;;;;6.97;2.30;;;17.20;68.40;;;;;;5155476;27;20027;-70
2021/05/25 04:58:19;;;;;;;3.45;1.80;;;17.20;68.20;;;;;;5154727;27;20019;-70
2021/05/25 05:00:45;;;;;;;2.00;1.80;;;17.30;68.00;;;;;;5155048;27;20071;-73
2021/05/25 05:03:10;;;;;;;2.38;1.85;;;17.40;68.00;;;;;;5155894;27;20027;-70
2021/05/25 05:05:36;;;;;;;2.58;1.95;;;17.40;67.80;;;;;;5155325;27;20050;-71
2021/05/25 05:08:05;;;;;;;4.65;1.85;;;17.50;67.70;;;;;;5153840;27;20042;-71
2021/05/25 05:10:31;;;;;;;5.05;2.30;;;17.50;67.40;;;;;;5155505;27;20019;-71
2021/05/25 05:12:57;;;;;;;1.75;1.65;;;17.60;67.40;;;;;;5154853;27;20486;-71
2021/05/25 05:15:23;;;;;;;1.83;1.60;;;17.70;67.20;;;;;;5155147;27;20456;-71
2021/05/25 05:17:50;;;;;;;2.45;1.77;;;17.70;67.10;;;;;;5154822;27;20432;-71
2021/05/25 05:20:16;;;;;;;6.93;1.95;;;17.80;66.80;;;;;;5155034;27;20105;-71
2021/05/25 05:22:43;;;;;;;2.58;2.20;;;17.80;66.60;;;;;;5153602;27;20087;-70
2021/05/25 05:25:10;;;;;;;2.75;1.67;;;17.90;66.60;;;;;;5155295;27;20425;-71
2021/05/25 05:27:36;;;;;;;2.45;2.03;;;18.00;66.50;;;;;;5155080;27;20057;-71
2021/05/25 05:30:04;;;;;;;4.05;1.70;;;18.10;66.40;;;;;;5154882;27;20030;-73
2021/05/25 05:32:30;;;;;;;2.03;1.88;;;18.20;66.30;;;;;;5155564;27;20032;-71
2021/05/25 05:34:55;;;;;;;2.92;1.80;;;18.30;65.90;;;;;;5154803;27;20513;-71
2021/05/25 05:37:21;;;;;;;2.75;1.90;;;18.30;65.70;;;;;;5155101;27;20033;-70
2021/05/25 05:39:47;;;;;;;1.90;1.63;;;18.40;65.60;;;;;;5155199;27;20031;-71
2021/05/25 05:42:12;;;;;;;2.10;1.77;;;18.50;65.20;;;;;;5154505;27;20364;-73
2021/05/25 05:44:38;;;;;;;3.13;2.05;;;18.60;65.00;;;;;;5154748;27;20023;-71
2021/05/25 05:47:04;;;;;;;3.45;1.63;;;18.70;64.90;;;;;;5154391;27;20019;-70
2021/05/25 05:49:30;;;;;;;2.05;1.70;;;18.70;64.70;;;;;;5155287;27;20027;-71
2021/05/25 05:51:56;;;;;;;3.35;1.88;;;18.80;64.50;;;;;;5136108;27;20383;-71
2021/05/25 05:54:22;;;;;;;2.15;1.60;;;18.90;64.20;;;;;;5154261;27;20100;-70
2021/05/25 05:56:48;;;;;;;4.97;2.05;;;18.90;64.10;;;;;;5154488;27;20062;-71
2021/05/25 05:59:15;;;;;;;3.13;1.88;;;19.00;64.00;;;;;;5154425;27;20129;-70
2021/05/25 06:01:41;;;;;;;2.50;1.80;;;19.00;63.80;;;;;;5154407;27;20388;-70
2021/05/25 06:04:07;;;;;;;4.68;1.63;;;19.10;63.70;;;;;;5154838;27;20352;-70
2021/05/25 06:06:33;;;;;;;3.08;2.05;;;19.20;63.60;;;;;;5157151;27;20033;-70
2021/05/25 06:08:59;;;;;;;2.08;1.90;;;19.30;63.40;;;;;;5158553;27;20438;-71
2021/05/25 06:11:24;;;;;;;2.63;2.00;;;19.30;63.30;;;;;;5158774;27;20026;-70
2021/05/25 06:13:50;;;;;;;2.50;2.05;;;19.40;63.80;;;;;;5158575;27;20380;-71
2021/05/25 06:16:16;;;;;;;4.03;2.28;;;19.50;63.00;;;;;;5158417;27;20026;-70
2021/05/25 06:18:42;;;;;;;7.22;2.35;;;19.50;62.90;;;;;;5158174;27;20027;-70
2021/05/25 06:21:07;;;;;;;3.88;1.90;;;19.50;62.70;;;;;;5158369;27;20384;-71
2021/05/25 06:23:34;;;;;;;4.60;2.10;;;19.60;62.60;;;;;;5158338;27;20034;-70
2021/05/25 06:26:02;;;;;;;4.78;2.08;;;19.60;62.50;;;;;;5158424;27;20038;-71
2021/05/25 06:28:29;;;;;;;2.78;1.67;;;19.60;62.30;;;;;;5158078;27;20376;-71
2021/05/25 06:30:55;;;;;;;1.60;1.50;;;19.70;62.30;;;;;;5158161;27;20046;-70
2021/05/25 06:33:20;;;;;;;7.50;1.92;;;19.80;62.20;;;;;;5157622;27;20110;-70
2021/05/25 06:35:46;;;;;;;3.72;2.00;;;19.90;62.00;;;;;;5157997;27;20106;-70
2021/05/25 06:38:12;;;;;;;4.18;2.03;;;20.00;61.70;;;;;;5157977;27;20026;-70
2021/05/25 06:40:38;;;;;;;22.42;3.03;;;20.10;61.50;;;;;;5139510;27;20110;-71
2021/05/25 06:43:04;;;;;;;10.02;2.40;;;20.10;61.30;;;;;;5158269;27;20087;-72
2021/05/25 06:45:29;;;;;;;15.38;2.78;;;20.20;61.20;;;;;;5158102;27;20057;-71
2021/05/25 06:47:55;;;;;;;19.25;3.47;;;20.20;61.10;;;;;;5157762;27;20056;-72
2021/05/25 06:50:21;;;;;;;8.77;2.25;;;20.30;61.10;;;;;;5157696;27;20018;-71
2021/05/25 06:52:47;;;;;;;4.32;1.88;;;20.30;61.10;;;;;;5157455;27;20029;-70
2021/05/25 06:55:14;;;;;;;4.30;2.08;;;20.40;61.20;;;;;;5158011;27;20527;-71
2021/05/25 06:57:40;;;;;;;1.80;1.70;;;20.50;61.10;;;;;;5157900;27;20072;-71
2021/05/25 07:00:09;;;;;;;13.10;3.63;;;20.70;60.70;;;;;;5157921;27;20023;-71
2021/05/25 07:02:37;;;;;;;7.75;2.53;;;20.80;60.70;;;;;;5157145;27;20587;-72
2021/05/25 07:05:04;;;;;;;4.20;1.63;;;20.90;60.60;;;;;;5157310;27;20034;-71
2021/05/25 07:07:29;;;;;;;35.60;4.90;;;20.90;60.30;;;;;;5157527;27;20029;-71
2021/05/25 07:09:55;;;;;;;8.38;2.25;;;21.00;60.50;;;;;;5157711;27;20023;-71
2021/05/25 07:12:21;;;;;;;4.35;1.90;;;21.10;60.50;;;;;;5157838;27;20073;-71
2021/05/25 07:14:47;;;;;;;6.57;2.30;;;21.30;60.40;;;;;;5157190;27;20035;-71
2021/05/25 07:17:13;;;;;;;10.25;2.38;;;21.50;60.10;;;;;;5157172;27;20028;-71
2021/05/25 07:19:39;;;;;;;9.52;2.60;;;21.70;59.60;;;;;;5157488;27;20030;-71
2021/05/25 07:22:04;;;;;;;7.10;2.28;;;21.80;59.20;;;;;;5157528;27;20114;-71
2021/05/25 07:24:30;;;;;;;2.72;2.13;;;21.90;58.60;;;;;;5157117;27;20448;-71
2021/05/25 07:26:56;;;;;;;3.28;1.92;;;22.10;58.30;;;;;;5156662;27;20461;-71
2021/05/25 07:29:22;;;;;;;5.80;2.00;;;22.20;58.20;;;;;;5156761;27;20123;-72
2021/05/25 07:31:48;;;;;;;4.50;1.88;;;22.30;57.80;;;;;;5157004;27;20015;-70
2021/05/25 07:34:14;;;;;;;2.45;1.60;;;22.40;57.20;;;;;;5157315;27;20091;-70
2021/05/25 07:36:40;;;;;;;2.78;1.75;;;22.60;56.80;;;;;;5156969;27;20488;-70
2021/05/25 07:39:06;;;;;;;3.65;1.80;;;22.70;56.30;;;;;;5156813;27;20022;-71
2021/05/25 07:41:32;;;;;;;8.30;3.28;;;22.80;56.00;;;;;;5138854;27;20133;-71
2021/05/25 07:43:58;;;;;;;5.43;2.00;;;23.00;55.60;;;;;;5157071;27;20034;-71
2021/05/25 07:46:25;;;;;;;12.00;2.25;;;23.30;55.30;;;;;;5157256;27;20413;-72
2021/05/25 07:48:52;;;;;;;8.25;2.35;;;23.40;54.90;;;;;;5156465;27;20039;-74
2021/05/25 07:51:19;;;;;;;10.85;2.53;;;23.50;54.60;;;;;;5157004;27;20449;-71
2021/05/25 07:53:45;;;;;;;7.68;2.03;;;23.70;54.30;;;;;;5156520;27;20026;-71
2021/05/25 07:56:11;;;;;;;6.60;2.00;;;24.00;54.30;;;;;;5156332;27;20483;-70
2021/05/25 07:58:37;;;;;;;3.78;1.90;;;24.20;53.70;;;;;;5157518;27;20034;-70
2021/05/25 08:01:03;;;;;;;2.95;1.70;;;24.40;53.20;;;;;;5156057;27;20472;-71
2021/05/25 08:03:29;;;;;;;4.50;1.92;;;24.60;52.90;;;;;;5156307;27;20041;-70
2021/05/25 08:05:57;;;;;;;4.32;1.90;;;24.70;52.40;;;;;;5156726;27;20022;-71
2021/05/25 08:08:23;;;;;;;9.55;2.53;;;24.90;52.20;;;;;;5156171;27;20027;-73
2021/05/25 08:10:49;;;;;;;5.85;1.90;;;25.00;52.00;;;;;;5156744;27;20026;-70
2021/05/25 08:13:15;;;;;;;3.25;1.88;;;25.10;51.60;;;;;;5137232;27;20125;-71
2021/05/25 08:15:41;;;;;;;2.40;1.50;;;25.10;51.30;;;;;;5155871;27;20054;-72
2021/05/25 08:18:18;;;;;;;4.97;2.00;;;25.10;51.30;;;;;;5155921;27;20026;-71
2021/05/25 08:20:44;;;;;;;17.55;3.58;;;25.30;51.40;;;;;;5155952;27;20023;-72
2021/05/25 08:23:12;;;;;;;20.55;2.63;;;25.40;51.30;;;;;;5156176;27;20018;-71
2021/05/25 08:25:40;;;;;;;14.63;2.85;;;25.50;50.80;;;;;;5156149;27;20030;-72
2021/05/25 08:28:07;;;;;;;17.95;2.67;;;25.70;50.30;;;;;;5155470;27;20027;-72
2021/05/25 08:30:37;;;;;;;10.65;2.65;;;25.80;50.00;;;;;;5155567;27;20026;-71
2021/05/25 08:33:03;;;;;;;9.02;2.42;;;26.00;49.80;;;;;;5155705;27;20038;-71
2021/05/25 08:35:32;;;;;;;14.77;2.90;;;26.10;49.70;;;;;;5154492;27;20030;-71
2021/05/25 08:37:59;;;;;;;9.50;2.03;;;26.30;49.70;;;;;;5155570;27;20034;-71
2021/05/25 08:40:30;;;;;;;8.38;2.05;;;26.40;49.40;;;;;;5155612;27;20364;-71
2021/05/25 08:42:56;;;;;;;12.60;2.50;;;26.50;49.30;;;;;;5155877;27;20117;-71
2021/05/25 08:45:22;;;;;;;10.50;2.10;;;26.80;49.20;;;;;;5155842;27;20079;-71
2021/05/25 08:47:53;;;;;;;6.97;2.30;;;27.10;48.10;;;;;;5155517;27;20464;-71
2021/05/25 08:50:26;;;;;;;13.43;2.22;;;27.30;47.50;;;;;;5155019;27;20046;-71
2021/05/25 08:52:57;;;;;;;5.55;1.75;;;27.50;47.00;;;;;;5155131;27;20456;-71
2021/05/25 08:55:23;;;;;;;4.85;1.73;;;27.70;46.70;;;;;;5155223;27;20046;-71
2021/05/25 08:57:49;;;;;;;6.00;1.80;;;27.80;46.20;;;;;;5155470;27;20131;-71
2021/05/25 09:00:16;;;;;;;12.65;2.00;;;27.80;46.00;;;;;;5155561;27;20448;-71
2021/05/25 09:02:41;;;;;;;13.38;2.80;;;27.90;46.10;;;;;;5155860;27;20025;-72
2021/05/25 09:05:20;;;;;;;6.22;2.20;;;28.10;46.30;;;;;;5155862;27;20110;-71
2021/05/25 09:07:48;;;;;;;1.52;1.33;;;28.30;45.80;;;;;;5155005;27;20059;-70
2021/05/25 09:10:21;;;;;;;3.88;1.92;;;28.30;45.60;;;;;;5154969;27;20045;-71
2021/05/25 09:12:50;;;;;;;2.75;1.92;;;28.30;45.50;;;;;;5154854;27;20109;-71
2021/05/25 09:15:42;;;;;;;4.25;1.80;;;28.50;45.60;;;;;;5154891;27;20046;-71
2021/05/25 09:18:09;;;;;;;5.93;1.85;;;28.80;45.00;;;;;;5154779;27;20026;-72
2021/05/25 09:20:37;;;;;;;2.20;2.00;;;29.30;44.50;;;;;;5154894;27;20440;-72
2021/05/25 09:23:03;;;;;;;4.50;1.70;;;29.80;43.70;;;;;;5154635;27;20034;-71
2021/05/25 09:25:30;;;;;;;3.83;1.60;;;30.40;43.10;;;;;;5154973;27;20031;-72
2021/05/25 09:28:12;;;;;;;2.45;1.25;;;31.00;42.50;;;;;;5154841;27;20376;-71
2021/05/25 09:30:39;;;;;;;9.90;2.10;;;31.70;42.10;;;;;;5154876;27;20025;-72
2021/05/25 09:33:08;;;;;;;3.42;1.85;;;32.40;41.60;;;;;;5154766;27;20139;-71
2021/05/25 09:35:37;;;;;;;1.75;1.65;;;33.20;41.00;;;;;;5154936;27;20031;-72
2021/05/25 09:38:14;;;;;;;3.67;1.40;;;33.90;40.40;;;;;;5154778;27;20041;-71
2021/05/25 09:40:44;;;;;;;8.23;2.58;;;34.70;39.40;;;;;;5155643;27;20098;-71
2021/05/25 09:43:23;;;;;;;7.25;1.98;;;35.30;38.70;;;;;;5159630;27;20042;-71
2021/05/25 09:45:58;;;;;;;1.95;0.93;;;36.00;38.30;;;;;;5159558;27;20034;-71
2021/05/25 09:48:44;;;;;;;2.67;1.52;;;36.60;37.10;;;;;;5158866;27;20061;-71
2021/05/25 09:51:39;;;;;;;1.20;1.10;;;37.20;36.40;;;;;;5147663;27;20039;-72
2021/05/25 09:54:21;;;;;;;3.42;1.42;;;37.90;36.10;;;;;;5144789;27;20119;-72
2021/05/25 09:56:58;;;;;;;3.72;1.45;;;38.40;35.10;;;;;;5140682;27;20398;-72
2021/05/25 09:59:30;;;;;;;1.58;1.10;;;38.80;34.40;;;;;;5159132;27;20053;-72
2021/05/25 10:01:56;;;;;;;0.80;0.80;;;39.10;33.70;;;;;;5158822;27;20022;-72
2021/05/25 10:04:23;;;;;;;11.98;2.00;;;39.30;33.70;;;;;;5158530;27;20468;-72
2021/05/25 10:06:50;;;;;;;10.70;2.65;;;39.60;33.30;;;;;;5158475;27;20026;-71
2021/05/25 10:09:19;;;;;;;5.97;1.67;;;39.60;32.90;;;;;;5158499;27;20034;-72
2021/05/25 10:11:46;;;;;;;6.38;2.15;;;39.70;32.90;;;;;;5159021;27;20448;-71
2021/05/25 10:14:13;;;;;;;5.95;2.20;;;39.90;32.70;;;;;;5158483;27;20113;-71
2021/05/25 10:16:45;;;;;;;18.63;4.05;;;40.00;32.30;;;;;;5158338;27;20027;-71
2021/05/25 10:21:37;;;;;;;2.45;1.50;;;40.40;32.00;;;;;;5158459;27;20031;-72
2021/05/25 10:24:03;;;;;;;4.10;1.30;;;40.50;31.60;;;;;;5158813;27;20045;-73
2021/05/25 10:26:32;;;;;;;2.60;1.77;;;40.60;31.30;;;;;;5158364;27;20456;-72
2021/05/25 10:29:03;;;;;;;2.92;1.48;;;40.80;31.10;;;;;;5158045;27;20023;-70
2021/05/25 10:31:35;;;;;;;13.45;2.58;;;41.00;30.60;;;;;;5157746;27;20023;-72
2021/05/25 10:34:22;;;;;;;1.75;1.65;;;41.20;30.80;;;;;;5157893;27;20065;-75
2021/05/25 10:36:52;;;;;;;25.85;3.35;;;41.20;30.40;;;;;;5158080;27;20082;-72
2021/05/25 10:39:34;;;;;;;1.88;1.30;;;41.50;30.60;;;;;;5157801;27;20106;-72
2021/05/25 10:42:18;;;;;;;5.05;1.98;;;41.70;30.20;;;;;;5157257;27;20039;-72
2021/05/25 10:45:00;;;;;;;2.50;1.00;;;42.00;30.20;;;;;;5157783;27;20038;-72
2021/05/25 10:47:36;;;;;;;49.47;8.97;;;42.30;29.80;;;;;;5158218;27;20019;-72
2021/05/25 10:52:53;;;;;;;4.47;1.75;;;42.60;29.80;;;;;;5157460;27;20050;-72
2021/05/25 10:55:31;;;;;;;4.63;1.50;;;42.90;29.60;;;;;;5158266;27;20388;-72
2021/05/25 10:57:58;;;;;;;2.65;1.20;;;43.10;29.20;;;;;;5157455;27;20023;-76
2021/05/25 11:00:35;;;;;;;1.40;0.93;;;43.40;29.00;;;;;;5157856;27;20026;-71
2021/05/25 11:03:21;;;;;;;6.07;1.48;;;43.60;28.70;;;;;;5157152;27;20026;-72
2021/05/25 11:05:49;;;;;;;10.07;2.20;;;43.60;28.80;;;;;;5156165;27;20399;-72
2021/05/25 11:08:17;;;;;;;4.13;1.90;;;43.70;28.50;;;;;;5157974;27;20023;-72
2021/05/25 11:10:51;;;;;;;3.50;1.65;;;43.60;28.70;;;;;;5157271;27;20468;-71
2021/05/25 11:13:17;;;;;;;6.63;1.55;;;43.50;28.60;;;;;;5157020;27;20019;-71
2021/05/25 11:16:06;;;;;;;3.38;1.30;;;43.60;28.30;;;;;;5157064;27;20037;-71
2021/05/25 11:21:33;;;;;;;1.90;1.20;;;43.90;28.30;;;;;;5157175;27;20058;-71
2021/05/25 11:23:59;;;;;;;3.83;1.27;;;44.00;27.80;;;;;;5157205;27;20027;-71
2021/05/25 11:26:55;;;;;;;2.47;1.10;;;44.00;27.90;;;;;;5157249;27;20483;-71
2021/05/25 11:29:23;;;;;;;1.90;0.98;;;43.90;27.70;;;;;;5156669;27;20468;-72
2021/05/25 11:31:49;;;;;;;4.15;1.42;;;44.20;27.90;;;;;;5156799;27;20042;-71
2021/05/25 11:34:19;;;;;;;3.97;1.67;;;44.40;27.90;;;;;;5156914;27;20026;-71
2021/05/25 11:36:44;;;;;;;2.17;0.90;;;44.60;27.80;;;;;;5157111;27;20106;-71
2021/05/25 11:39:12;;;;;;;12.40;2.28;;;44.50;27.60;;;;;;5156737;27;20528;-73
2021/05/25 11:41:38;;;;;;;8.38;2.00;;;44.40;27.80;;;;;;5156554;27;20402;-72
2021/05/25 11:44:10;;;;;;;26.52;2.40;;;44.40;27.60;;;;;;5157248;27;20472;-86
2021/05/25 11:46:43;;;;;;;8.27;1.75;;;44.60;27.70;;;;;;5156591;27;20029;-71
2021/05/25 11:49:11;;;;;;;1.85;1.65;;;44.80;27.60;;;;;;5156503;27;20023;-71
2021/05/25 11:51:37;;;;;;;2.88;1.33;;;45.00;27.60;;;;;;5156362;27;20086;-71
2021/05/25 11:54:13;;;;;;;5.07;1.65;;;45.00;27.60;;;;;;5156231;27;20073;-71
2021/05/25 11:56:42;;;;;;;12.35;1.70;;;44.90;27.60;;;;;;5156419;27;20038;-71
2021/05/25 11:59:17;;;;;;;24.83;3.30;;;44.50;27.60;;;;;;5156284;27;20026;-71
2021/05/25 12:01:48;;;;;;;9.05;2.45;;;44.40;27.70;;;;;;5156246;27;20026;-71
2021/05/25 12:04:14;;;;;;;1.42;1.27;;;44.70;27.80;;;;;;5155282;27;20031;-71
2021/05/25 12:06:51;;;;;;;1.00;0.77;;;44.80;27.60;;;;;;5156023;27;20034;-72
2021/05/25 12:09:18;;;;;;;4.70;1.33;;;44.80;27.30;;;;;;5155601;27;20384;-71
2021/05/25 12:11:47;;;;;;;14.38;2.15;;;44.80;27.40;;;;;;5156018;27;20019;-71
2021/05/25 12:14:14;;;;;;;15.15;2.20;;;44.80;27.50;;;;;;5154465;27;20518;-71
2021/05/25 12:16:41;;;;;;;4.70;1.92;;;44.90;27.60;;;;;;5155235;27;20071;-71
2021/05/25 12:19:08;;;;;;;4.72;1.30;;;45.00;27.60;;;;;;5155730;27;20034;-72
2021/05/25 12:21:34;;;;;;;3.03;1.40;;;45.00;27.60;;;;;;5155963;27;20027;-71
2021/05/25 12:24:00;;;;;;;2.60;1.20;;;44.90;27.60;;;;;;5156570;27;20428;-71
2021/05/25 12:26:26;;;;;;;23.48;3.50;;;45.00;27.60;;;;;;5155436;27;20025;-72
2021/05/25 12:28:53;;;;;;;4.13;1.45;;;45.20;27.60;;;;;;5155703;27;20200;-72
2021/05/25 12:31:20;;;;;;;6.05;1.42;;;45.40;28.10;;;;;;5155865;27;20032;-72
2021/05/25 12:33:48;;;;;;;3.65;1.30;;;45.60;27.50;;;;;;5156159;27;20088;-73
2021/05/25 12:36:21;;;;;;;2.90;1.10;;;45.60;27.40;;;;;;5155953;27;20376;-72
2021/05/25 12:39:07;;;;;;;5.35;1.25;;;45.40;27.30;;;;;;5155794;27;20075;-72
2021/05/25 12:41:43;;;;;;;3.67;0.93;;;45.40;27.20;;;;;;5155215;27;20479;-77
2021/05/25 12:44:16;;;;;;;31.27;5.05;;;45.20;27.20;;;;;;5155965;27;20031;-76
2021/05/25 12:46:58;;;;;;;2.55;1.33;;;45.10;27.40;;;;;;5155182;27;20113;-74
2021/05/25 12:49:29;;;;;;;5.90;1.35;;;44.90;27.40;;;;;;5155800;27;20015;-75
2021/05/25 12:52:27;;;;;;;4.38;1.70;;;44.90;27.60;;;;;;5155371;27;20027;-80
2021/05/25 12:55:11;;;;;;;12.55;2.25;;;45.10;27.50;;;;;;5155441;27;20432;-72
2021/05/25 12:57:50;;;;;;;12.35;2.30;;;45.20;27.40;;;;;;5137315;27;20031;-78
2021/05/25 13:00:31;;;;;;;12.45;2.45;;;45.40;27.40;;;;;;5155302;27;20052;-77